Time;durP1;ratioP1;P1;durP2;ratioP2;P2;SDS_P1;SDS_P2;PMS_P1;PMS_P2;Temp;Humidity;BMP_temperature;BMP_pressure;BME280_temperature;BME280_humidity;BME280_pressure;Samples;Min_cycle;Max_cycle;Signal;HPM_P1;HPM_P2
2023/09/07 00:01:31;;;;;;;7.63;6.40;;;18.40;99.90;;;;;;5060262;28;20167;-75
2023/09/07 00:03:56;;;;;;;12.10;8.73;;;18.30;99.90;;;;;;5051283;28;20056;-74
2023/09/07 00:06:22;;;;;;;8.00;7.20;;;18.30;99.90;;;;;;5048646;28;20025;-74
2023/09/07 00:08:47;;;;;;;8.10;7.10;;;18.20;99.90;;;;;;5054560;28;20029;-74
2023/09/07 00:11:13;;;;;;;10.50;8.60;;;18.10;99.90;;;;;;5051398;28;20025;-74
2023/09/07 00:13:39;;;;;;;14.18;10.07;;;18.10;99.90;;;;;;5052950;28;20469;-74
2023/09/07 00:16:05;;;;;;;10.32;7.72;;;18.10;99.90;;;;;;5051970;28;20029;-74
2023/09/07 00:18:32;;;;;;;9.45;8.35;;;18.10;99.90;;;;;;5049756;28;20535;-74
2023/09/07 00:20:59;;;;;;;16.85;10.23;;;18.00;99.90;;;;;;5050147;28;20499;-75
2023/09/07 00:23:25;;;;;;;13.85;11.55;;;18.00;99.90;;;;;;5054087;28;20033;-75
2023/09/07 00:25:50;;;;;;;13.05;11.38;;;18.00;99.90;;;;;;5050457;28;20039;-75
2023/09/07 00:28:16;;;;;;;14.32;10.82;;;17.90;99.90;;;;;;5049142;28;20025;-74
2023/09/07 00:30:42;;;;;;;12.50;11.02;;;17.90;99.90;;;;;;5049764;28;20508;-74
2023/09/07 00:33:07;;;;;;;11.93;10.73;;;17.90;99.90;;;;;;5041240;28;20057;-74
2023/09/07 00:35:33;;;;;;;10.23;9.10;;;17.90;99.90;;;;;;5047365;28;20050;-74
2023/09/07 00:37:58;;;;;;;13.13;9.93;;;17.90;99.90;;;;;;5044357;28;20041;-74
2023/09/07 00:40:26;;;;;;;14.07;9.73;;;17.90;99.90;;;;;;5044426;28;20080;-75
2023/09/07 00:42:52;;;;;;;12.52;9.77;;;18.00;99.90;;;;;;5045990;28;20025;-75
2023/09/07 00:45:17;;;;;;;12.25;9.80;;;18.00;99.90;;;;;;5047736;28;20473;-75
2023/09/07 00:47:43;;;;;;;11.05;9.30;;;18.00;99.90;;;;;;5049774;28;20024;-75
2023/09/07 00:50:09;;;;;;;10.82;9.75;;;18.00;99.90;;;;;;5048722;28;20504;-75
2023/09/07 00:52:36;;;;;;;10.23;9.13;;;18.00;99.90;;;;;;5048786;28;20112;-75
2023/09/07 00:55:04;;;;;;;11.65;9.70;;;18.00;99.90;;;;;;5053767;28;20024;-74
2023/09/07 00:57:29;;;;;;;16.83;9.52;;;18.00;99.90;;;;;;5050594;28;20393;-74
2023/09/07 00:59:55;;;;;;;11.82;9.73;;;18.10;99.90;;;;;;5046703;28;20036;-75
2023/09/07 01:02:21;;;;;;;12.90;9.23;;;18.10;99.90;;;;;;5057877;28;20036;-75
2023/09/07 01:04:46;;;;;;;12.85;10.70;;;18.10;99.90;;;;;;5048486;28;20029;-74
2023/09/07 01:07:23;;;;;;;10.82;9.57;;;18.10;99.90;;;;;;5041543;28;20025;-74
2023/09/07 01:09:54;;;;;;;12.00;10.40;;;18.20;99.90;;;;;;5050573;28;20025;-74
2023/09/07 01:12:19;;;;;;;15.02;10.40;;;18.20;99.90;;;;;;5049628;28;20466;-74
2023/09/07 01:14:46;;;;;;;11.02;9.90;;;18.20;99.90;;;;;;5053764;28;20037;-74
2023/09/07 01:17:13;;;;;;;11.48;9.48;;;18.10;99.90;;;;;;5052207;28;20013;-74
2023/09/07 01:19:39;;;;;;;13.80;10.05;;;18.10;99.90;;;;;;5054630;28;20207;-72
2023/09/07 01:22:06;;;;;;;12.57;10.50;;;18.10;99.90;;;;;;5050423;28;20033;-73
2023/09/07 01:24:33;;;;;;;11.82;10.45;;;18.10;99.90;;;;;;5052247;28;20393;-72
2023/09/07 01:26:59;;;;;;;12.05;10.15;;;18.10;99.90;;;;;;5051774;28;20839;-73
2023/09/07 01:29:26;;;;;;;11.60;8.65;;;18.00;99.90;;;;;;5052879;28;20103;-72
2023/09/07 01:31:52;;;;;;;17.13;11.00;;;18.00;99.90;;;;;;5052278;28;20075;-72
2023/09/07 01:34:18;;;;;;;12.43;9.80;;;17.80;99.90;;;;;;5054562;28;20037;-73
2023/09/07 01:36:43;;;;;;;12.25;10.45;;;17.80;99.90;;;;;;5051663;28;20187;-72
2023/09/07 01:39:09;;;;;;;11.65;9.98;;;17.70;99.90;;;;;;5061473;28;20507;-73
2023/09/07 01:41:35;;;;;;;19.65;11.10;;;17.70;99.90;;;;;;5049506;28;20037;-73
2023/09/07 01:44:00;;;;;;;12.68;11.15;;;17.60;99.90;;;;;;5050103;28;20033;-73
2023/09/07 01:46:26;;;;;;;16.30;11.88;;;17.50;99.90;;;;;;5053287;28;20021;-73
2023/09/07 01:48:51;;;;;;;16.08;12.57;;;17.50;99.90;;;;;;5048824;28;20021;-72
2023/09/07 01:51:17;;;;;;;14.43;12.93;;;17.40;99.90;;;;;;5051442;28;20032;-73
2023/09/07 01:53:42;;;;;;;16.65;13.05;;;17.30;99.90;;;;;;5051556;28;20021;-73
2023/09/07 01:56:09;;;;;;;14.05;12.07;;;17.30;99.90;;;;;;5052198;28;20025;-73
2023/09/07 01:58:36;;;;;;;14.82;13.25;;;17.30;99.90;;;;;;5051637;28;20033;-72
2023/09/07 02:01:02;;;;;;;15.38;12.27;;;17.30;99.90;;;;;;5054163;28;20057;-72
2023/09/07 02:03:28;;;;;;;16.25;12.13;;;17.20;99.90;;;;;;5051701;28;20045;-72
2023/09/07 02:05:54;;;;;;;16.25;13.27;;;17.20;99.90;;;;;;5055640;28;20595;-73
2023/09/07 02:08:20;;;;;;;15.02;13.43;;;17.20;99.90;;;;;;5063606;28;20028;-73
2023/09/07 02:10:45;;;;;;;17.73;13.57;;;17.20;99.90;;;;;;5054495;28;20040;-72
2023/09/07 02:13:11;;;;;;;20.25;13.38;;;17.20;99.90;;;;;;5050929;28;20370;-72
2023/09/07 02:15:38;;;;;;;16.60;13.85;;;17.10;99.90;;;;;;5050508;28;20017;-73
2023/09/07 02:18:05;;;;;;;16.10;11.55;;;17.20;99.90;;;;;;5052623;28;20032;-72
2023/09/07 02:20:31;;;;;;;15.93;12.63;;;17.20;99.90;;;;;;5051963;28;20020;-73
2023/09/07 02:22:57;;;;;;;17.15;13.25;;;17.20;99.90;;;;;;5052191;28;20047;-72
2023/09/07 02:25:22;;;;;;;12.82;11.43;;;17.20;99.90;;;;;;5057729;28;20485;-72
2023/09/07 02:27:48;;;;;;;14.43;11.93;;;17.10;99.90;;;;;;5051403;28;20021;-72
2023/09/07 02:30:13;;;;;;;15.65;13.23;;;17.10;99.90;;;;;;5051769;28;20044;-72
2023/09/07 02:32:41;;;;;;;16.13;13.00;;;17.10;99.90;;;;;;5054232;28;20374;-72
2023/09/07 02:35:08;;;;;;;15.70;11.00;;;17.10;99.90;;;;;;5056670;28;20037;-72
2023/09/07 02:37:35;;;;;;;14.55;12.23;;;17.00;99.90;;;;;;5053252;28;20064;-72
2023/09/07 02:40:00;;;;;;;15.68;13.23;;;17.00;99.90;;;;;;5051768;28;20033;-73
2023/09/07 02:42:26;;;;;;;16.40;13.88;;;17.00;99.90;;;;;;5052685;28;20033;-72
2023/09/07 02:44:51;;;;;;;19.88;13.48;;;17.00;99.90;;;;;;5053287;28;20025;-72
2023/09/07 02:47:17;;;;;;;16.20;13.20;;;16.90;99.90;;;;;;5048925;28;20477;-72
2023/09/07 02:49:42;;;;;;;16.88;13.88;;;16.90;99.90;;;;;;5046121;28;20029;-72
2023/09/07 02:52:08;;;;;;;16.15;14.45;;;16.80;99.90;;;;;;5042773;28;20080;-72
2023/09/07 02:54:33;;;;;;;16.50;12.90;;;16.80;99.90;;;;;;5050541;28;20048;-72
2023/09/07 02:56:59;;;;;;;17.90;13.35;;;16.80;99.90;;;;;;5051937;28;20052;-73
2023/09/07 02:59:25;;;;;;;16.60;14.38;;;16.80;99.90;;;;;;5049972;28;20103;-72
2023/09/07 03:01:51;;;;;;;16.90;13.75;;;16.80;99.90;;;;;;5051196;28;20099;-72
2023/09/07 03:04:16;;;;;;;18.52;15.05;;;16.80;99.90;;;;;;5072730;28;20472;-72
2023/09/07 03:06:42;;;;;;;18.35;14.32;;;16.80;99.90;;;;;;5053941;28;20024;-72
2023/09/07 03:09:08;;;;;;;14.90;13.00;;;16.80;99.90;;;;;;5052544;28;20055;-72
2023/09/07 03:11:34;;;;;;;18.48;13.80;;;16.90;99.90;;;;;;5051571;28;20200;-73
2023/09/07 03:14:00;;;;;;;14.98;12.90;;;16.90;99.90;;;;;;5051370;28;20166;-72
2023/09/07 03:16:26;;;;;;;15.90;13.27;;;16.90;99.90;;;;;;5051237;28;20071;-73
2023/09/07 03:18:51;;;;;;;17.33;14.00;;;16.90;99.90;;;;;;5050926;28;20087;-72
2023/09/07 03:21:17;;;;;;;15.93;14.27;;;16.90;99.90;;;;;;5036056;28;20021;-73
2023/09/07 03:23:45;;;;;;;15.48;13.88;;;16.90;99.90;;;;;;5045709;28;20041;-73
2023/09/07 03:26:11;;;;;;;18.40;14.25;;;16.90;99.90;;;;;;5043193;28;20029;-75
2023/09/07 03:28:36;;;;;;;15.60;13.40;;;16.90;99.90;;;;;;5041108;28;20107;-73
2023/09/07 03:31:02;;;;;;;16.00;14.30;;;16.90;99.90;;;;;;5051074;28;20028;-73
2023/09/07 03:33:27;;;;;;;16.45;14.70;;;17.00;99.90;;;;;;5051028;28;20013;-73
2023/09/07 03:35:58;;;;;;;16.38;13.90;;;16.90;99.90;;;;;;5054249;28;20036;-73
2023/09/07 03:38:24;;;;;;;17.58;14.30;;;16.90;99.90;;;;;;5046780;28;20021;-73
2023/09/07 03:40:49;;;;;;;17.73;14.07;;;17.00;99.90;;;;;;5051190;28;20025;-73
2023/09/07 03:43:14;;;;;;;14.43;11.10;;;16.90;99.90;;;;;;5050416;28;20028;-74
2023/09/07 03:45:40;;;;;;;15.57;12.95;;;16.90;99.90;;;;;;5047956;28;20456;-73
2023/09/07 03:48:06;;;;;;;16.23;13.18;;;16.80;99.90;;;;;;5050551;28;20055;-73
2023/09/07 03:50:31;;;;;;;18.00;15.10;;;16.80;99.90;;;;;;5049377;28;20033;-73
2023/09/07 03:52:57;;;;;;;15.15;13.10;;;16.70;99.90;;;;;;5050652;28;20021;-73
2023/09/07 03:55:23;;;;;;;21.33;13.70;;;16.70;99.90;;;;;;5050380;28;20028;-74
2023/09/07 03:57:49;;;;;;;19.50;14.75;;;16.70;99.90;;;;;;5049726;28;20037;-73
2023/09/07 04:00:15;;;;;;;18.55;16.27;;;16.70;99.90;;;;;;5050917;28;20059;-74
2023/09/07 04:02:41;;;;;;;17.88;14.10;;;16.70;99.90;;;;;;5050389;28;20049;-74
2023/09/07 04:05:07;;;;;;;16.15;14.20;;;16.70;99.90;;;;;;5051518;28;20033;-74
2023/09/07 04:07:32;;;;;;;17.95;14.15;;;16.70;99.90;;;;;;5048911;28;20025;-73
2023/09/07 04:09:58;;;;;;;19.73;14.15;;;16.60;99.90;;;;;;5052304;28;20037;-74
2023/09/07 04:12:24;;;;;;;18.15;14.77;;;16.60;99.90;;;;;;5049132;28;20017;-74
2023/09/07 04:14:50;;;;;;;18.23;14.98;;;16.60;99.90;;;;;;5059942;28;20032;-74
2023/09/07 04:17:15;;;;;;;21.00;15.13;;;16.50;99.90;;;;;;5061232;28;20029;-74
2023/09/07 04:19:41;;;;;;;18.70;15.10;;;16.50;99.90;;;;;;5054326;28;20031;-74
2023/09/07 04:22:06;;;;;;;16.42;12.55;;;16.50;99.90;;;;;;5052348;28;20032;-73
2023/09/07 04:24:32;;;;;;;15.98;14.05;;;16.40;99.90;;;;;;5056385;28;20075;-74
2023/09/07 04:27:01;;;;;;;18.48;14.40;;;16.40;99.90;;;;;;5049524;28;20079;-73
2023/09/07 04:29:28;;;;;;;19.02;14.43;;;16.30;99.90;;;;;;5050759;28;20029;-73
2023/09/07 04:31:53;;;;;;;21.83;14.82;;;16.30;99.90;;;;;;5052889;28;20021;-73
2023/09/07 04:34:21;;;;;;;20.77;15.65;;;16.20;99.90;;;;;;5050751;28;20033;-74
2023/09/07 04:36:47;;;;;;;18.45;15.80;;;16.20;99.90;;;;;;5050778;28;20025;-74
2023/09/07 04:39:14;;;;;;;18.02;15.75;;;16.20;99.90;;;;;;5053355;28;20089;-73
2023/09/07 04:41:40;;;;;;;23.80;17.83;;;16.20;99.90;;;;;;5052594;28;20029;-73
2023/09/07 04:44:06;;;;;;;21.25;15.48;;;16.10;99.90;;;;;;5057483;28;20501;-73
2023/09/07 04:46:31;;;;;;;18.90;15.68;;;16.10;99.90;;;;;;5054671;28;20036;-73
2023/09/07 04:48:57;;;;;;;21.08;16.73;;;16.00;99.90;;;;;;5055549;28;20111;-73
2023/09/07 04:51:23;;;;;;;19.63;16.00;;;16.00;99.90;;;;;;5057049;28;20652;-72
2023/09/07 04:53:49;;;;;;;16.73;14.75;;;16.00;99.90;;;;;;5058244;28;20068;-73
2023/09/07 04:56:16;;;;;;;17.65;13.38;;;16.00;99.90;;;;;;5058284;28;20032;-74
2023/09/07 04:58:41;;;;;;;18.92;15.70;;;15.90;99.90;;;;;;5052905;28;20033;-74
2023/09/07 05:01:09;;;;;;;22.63;16.15;;;15.80;99.90;;;;;;5054836;28;20026;-74
2023/09/07 05:03:36;;;;;;;20.75;16.25;;;15.80;99.90;;;;;;5062594;28;20052;-74
2023/09/07 05:06:04;;;;;;;20.15;17.15;;;15.80;99.90;;;;;;5067805;28;20036;-73
2023/09/07 05:08:31;;;;;;;23.80;16.73;;;15.80;99.90;;;;;;5067655;28;20057;-74
2023/09/07 05:11:01;;;;;;;20.02;17.40;;;15.80;99.90;;;;;;5062053;28;20021;-74
2023/09/07 05:13:27;;;;;;;20.85;16.85;;;15.70;99.90;;;;;;5063751;28;20085;-74
2023/09/07 05:15:55;;;;;;;23.75;17.13;;;15.70;99.90;;;;;;5089555;28;20106;-74
2023/09/07 05:18:21;;;;;;;20.55;16.23;;;15.70;99.90;;;;;;5053574;28;20093;-74
2023/09/07 05:20:53;;;;;;;20.50;14.85;;;15.70;99.90;;;;;;5049890;28;20052;-74
2023/09/07 05:23:20;;;;;;;21.83;16.13;;;15.70;99.90;;;;;;5050326;28;20067;-74
2023/09/07 05:25:47;;;;;;;22.17;17.15;;;15.70;99.90;;;;;;5051245;28;20116;-74
2023/09/07 05:28:14;;;;;;;22.83;16.60;;;15.70;99.90;;;;;;5053392;28;20543;-74
2023/09/07 05:30:41;;;;;;;19.88;15.05;;;15.70;99.90;;;;;;5051901;28;20104;-74
2023/09/07 05:33:06;;;;;;;22.23;17.85;;;15.70;99.90;;;;;;5057012;28;20071;-74
2023/09/07 05:35:32;;;;;;;20.40;17.98;;;15.70;99.90;;;;;;5047608;28;20381;-74
2023/09/07 05:37:58;;;;;;;18.60;15.55;;;15.70;99.90;;;;;;5059488;28;20024;-74
2023/09/07 05:40:24;;;;;;;24.10;16.80;;;15.70;99.90;;;;;;5049195;28;20377;-74
2023/09/07 05:42:49;;;;;;;18.95;16.85;;;15.70;99.90;;;;;;5053251;28;20032;-74
2023/09/07 05:45:15;;;;;;;20.30;16.65;;;15.70;99.90;;;;;;5049331;28;20037;-74
2023/09/07 05:47:41;;;;;;;23.50;16.58;;;15.70;99.90;;;;;;5047333;28;20036;-73
2023/09/07 05:50:07;;;;;;;20.85;17.52;;;15.80;99.90;;;;;;5047527;28;20159;-73
2023/09/07 05:52:33;;;;;;;20.20;17.20;;;15.90;99.90;;;;;;5053849;28;20071;-74
2023/09/07 05:54:58;;;;;;;21.70;17.45;;;15.90;99.90;;;;;;5049506;28;20060;-74
2023/09/07 05:57:24;;;;;;;20.20;16.48;;;16.00;99.90;;;;;;5051898;28;20102;-73
2023/09/07 05:59:49;;;;;;;18.55;16.52;;;16.00;99.90;;;;;;5050672;28;20026;-73
2023/09/07 06:02:15;;;;;;;22.20;17.52;;;16.10;99.90;;;;;;5055844;28;20028;-73
2023/09/07 06:04:41;;;;;;;23.02;17.13;;;16.20;99.90;;;;;;5054280;28;20051;-73
2023/09/07 06:07:06;;;;;;;19.55;16.42;;;16.40;99.90;;;;;;5053406;28;20032;-73
2023/09/07 06:09:32;;;;;;;20.40;16.83;;;16.40;99.90;;;;;;5058849;28;20037;-74
2023/09/07 06:11:58;;;;;;;20.85;16.98;;;16.50;99.90;;;;;;5055574;28;20029;-73
2023/09/07 06:14:24;;;;;;;22.13;16.88;;;16.70;99.90;;;;;;5053262;28;20056;-73
2023/09/07 06:16:49;;;;;;;19.35;16.15;;;16.80;99.90;;;;;;5051568;28;20124;-73
2023/09/07 06:19:15;;;;;;;18.50;15.50;;;16.90;99.90;;;;;;5059022;28;20033;-73
2023/09/07 06:21:42;;;;;;;17.48;15.45;;;17.00;99.90;;;;;;5056085;28;20032;-74
2023/09/07 06:24:07;;;;;;;17.52;15.20;;;17.10;99.90;;;;;;5056961;28;20100;-73
2023/09/07 06:26:33;;;;;;;25.25;15.00;;;17.20;99.90;;;;;;5056232;28;20070;-73
2023/09/07 06:28:59;;;;;;;19.38;15.52;;;17.30;99.90;;;;;;5052099;28;20032;-73
2023/09/07 06:31:24;;;;;;;19.67;15.35;;;17.40;99.90;;;;;;5049259;28;20029;-73
2023/09/07 06:33:50;;;;;;;20.67;15.77;;;17.50;99.90;;;;;;5051264;28;20035;-73
2023/09/07 06:36:19;;;;;;;19.63;14.65;;;17.60;99.90;;;;;;5052257;28;20027;-73
2023/09/07 06:38:44;;;;;;;17.67;14.80;;;17.70;99.90;;;;;;5054808;28;20035;-73
2023/09/07 06:41:12;;;;;;;17.40;13.98;;;17.90;99.90;;;;;;5053430;28;20112;-73
2023/09/07 06:43:40;;;;;;;21.58;15.30;;;18.00;99.90;;;;;;5053278;28;20027;-73
2023/09/07 06:46:10;;;;;;;17.17;15.15;;;18.10;99.90;;;;;;5057195;28;20028;-72
2023/09/07 06:48:38;;;;;;;17.75;14.80;;;18.20;99.90;;;;;;5050723;28;20021;-74
2023/09/07 06:51:06;;;;;;;19.23;15.32;;;18.40;99.90;;;;;;5047275;28;20571;-73
2023/09/07 06:53:32;;;;;;;18.98;14.40;;;18.40;99.90;;;;;;5049213;28;20013;-76
2023/09/07 06:56:04;;;;;;;19.77;14.35;;;18.50;99.90;;;;;;5036179;28;20039;-74
2023/09/07 06:58:34;;;;;;;17.33;14.98;;;18.70;99.90;;;;;;5049320;28;20025;-76
2023/09/07 07:01:00;;;;;;;16.33;13.35;;;18.80;99.90;;;;;;5366767;22;20024;-83
2023/09/07 07:03:27;;;;;;;17.42;14.30;;;18.90;99.90;;;;;;5018355;28;20049;-84
2023/09/07 07:05:53;;;;;;;15.50;14.00;;;19.00;99.90;;;;;;5037641;28;20492;-85
2023/09/07 07:08:19;;;;;;;15.93;12.40;;;19.20;99.90;;;;;;5043602;28;20037;-83
2023/09/07 07:10:45;;;;;;;16.00;12.98;;;19.20;99.90;;;;;;5031196;28;20017;-84
2023/09/07 07:13:11;;;;;;;16.35;12.55;;;19.30;99.90;;;;;;5031073;28;20037;-83
2023/09/07 07:15:36;;;;;;;14.98;12.63;;;19.50;99.90;;;;;;5039772;28;20021;-85
2023/09/07 07:18:08;;;;;;;15.02;12.45;;;19.60;99.90;;;;;;5048635;28;20032;-85
2023/09/07 07:20:40;;;;;;;14.50;11.65;;;19.80;99.90;;;;;;5046669;28;20033;-85
2023/09/07 07:23:08;;;;;;;12.88;10.25;;;19.90;99.90;;;;;;5045321;28;20038;-85
2023/09/07 07:25:34;;;;;;;15.98;11.73;;;20.10;99.90;;;;;;5043844;28;20033;-85
2023/09/07 07:28:03;;;;;;;17.48;11.35;;;20.20;99.90;;;;;;5048903;28;20048;-86
2023/09/07 07:30:31;;;;;;;13.40;10.25;;;20.30;99.90;;;;;;5047151;28;20120;-85
2023/09/07 07:32:57;;;;;;;16.60;11.23;;;20.50;99.90;;;;;;5051779;28;20029;-86
2023/09/07 07:35:23;;;;;;;12.60;9.65;;;20.60;99.90;;;;;;5049506;28;20047;-84
2023/09/07 07:37:52;;;;;;;14.10;9.90;;;20.70;99.90;;;;;;5044491;28;20124;-85
2023/09/07 07:40:18;;;;;;;11.98;9.70;;;20.80;99.90;;;;;;5063094;28;20025;-86
2023/09/07 07:42:44;;;;;;;12.23;9.75;;;21.00;99.90;;;;;;5046105;28;20018;-85
2023/09/07 07:45:10;;;;;;;13.52;10.23;;;21.10;99.90;;;;;;5041096;28;20017;-85
2023/09/07 07:47:35;;;;;;;15.43;10.88;;;21.20;99.90;;;;;;5032595;28;20452;-85
2023/09/07 07:50:01;;;;;;;9.65;8.38;;;21.30;99.90;;;;;;5064710;28;20029;-85
2023/09/07 07:52:29;;;;;;;11.38;7.05;;;21.50;99.90;;;;;;5043761;28;20155;-85
2023/09/07 07:54:55;;;;;;;9.15;5.75;;;21.60;99.90;;;;;;5049021;28;20028;-84
2023/09/07 07:57:20;;;;;;;10.18;6.10;;;21.70;99.90;;;;;;5052057;28;20031;-85
2023/09/07 07:59:46;;;;;;;9.95;5.07;;;21.80;99.90;;;;;;5051017;28;20017;-86
2023/09/07 08:02:11;;;;;;;9.52;5.53;;;22.00;99.90;;;;;;5044134;28;20038;-85
2023/09/07 08:04:37;;;;;;;10.52;4.70;;;22.10;99.90;;;;;;5031080;28;20033;-85
2023/09/07 08:07:06;;;;;;;6.20;3.60;;;22.20;99.90;;;;;;5036238;28;20029;-84
2023/09/07 08:09:32;;;;;;;4.68;3.03;;;22.40;99.90;;;;;;5047766;28;20040;-86
2023/09/07 08:11:58;;;;;;;6.35;3.00;;;22.50;99.90;;;;;;5032738;28;20029;-86
2023/09/07 08:14:25;;;;;;;7.30;3.17;;;22.60;99.90;;;;;;5067117;28;20021;-85
2023/09/07 08:16:50;;;;;;;4.70;2.58;;;22.70;99.90;;;;;;5044036;28;20026;-85
2023/09/07 08:19:16;;;;;;;5.78;2.83;;;22.90;99.90;;;;;;5044166;28;20549;-86
2023/09/07 08:21:42;;;;;;;5.13;2.30;;;23.00;99.90;;;;;;5042461;28;20088;-84
2023/09/07 08:24:08;;;;;;;5.32;2.47;;;23.10;99.90;;;;;;5050832;28;20036;-85
2023/09/07 08:26:36;;;;;;;6.82;2.10;;;23.20;99.90;;;;;;5061990;28;20035;-84
2023/09/07 08:29:05;;;;;;;4.22;2.22;;;23.30;99.90;;;;;;5052832;28;20500;-84
2023/09/07 08:31:41;;;;;;;3.80;1.73;;;23.40;99.90;;;;;;5041961;28;20035;-84
2023/09/07 08:34:11;;;;;;;3.80;2.03;;;23.50;99.90;;;;;;5052773;28;20033;-84
2023/09/07 08:36:36;;;;;;;3.78;1.85;;;23.70;99.90;;;;;;5040596;28;20507;-84
2023/09/07 08:39:07;;;;;;;4.10;1.70;;;23.70;99.90;;;;;;5071078;28;20021;-84
2023/09/07 08:41:46;;;;;;;3.13;1.67;;;23.90;99.90;;;;;;5041508;28;20025;-84
2023/09/07 08:44:19;;;;;;;6.85;2.15;;;24.00;99.90;;;;;;5061626;28;20115;-84
2023/09/07 08:46:45;;;;;;;5.47;2.42;;;24.10;99.90;;;;;;5048227;28;20021;-85
2023/09/07 08:49:11;;;;;;;5.35;1.95;;;24.20;99.90;;;;;;5043590;28;20035;-84
2023/09/07 08:51:38;;;;;;;3.17;2.03;;;24.30;99.90;;;;;;5064683;28;20104;-85
2023/09/07 08:54:05;;;;;;;4.13;2.50;;;24.30;99.90;;;;;;5063012;28;20032;-84
2023/09/07 08:56:31;;;;;;;4.80;2.22;;;24.40;99.90;;;;;;5049836;28;20021;-83
2023/09/07 08:58:57;;;;;;;4.72;2.53;;;24.40;99.90;;;;;;5050427;28;20033;-84
2023/09/07 09:01:22;;;;;;;5.10;2.00;;;24.40;99.90;;;;;;5047073;28;20048;-84
2023/09/07 09:03:49;;;;;;;7.45;2.38;;;24.50;99.90;;;;;;5049673;28;20064;-84
2023/09/07 09:06:18;;;;;;;7.68;2.35;;;24.50;99.90;;;;;;5049152;28;20068;-84
2023/09/07 09:08:45;;;;;;;5.53;1.98;;;24.60;99.90;;;;;;5064640;28;20043;-84
2023/09/07 09:11:10;;;;;;;2.97;1.90;;;24.70;99.90;;;;;;5060491;28;20079;-84
2023/09/07 09:13:36;;;;;;;5.60;2.20;;;24.90;99.90;;;;;;5050728;28;20139;-84
2023/09/07 09:16:02;;;;;;;4.38;2.03;;;25.00;99.90;;;;;;5044395;28;20079;-85
2023/09/07 09:18:28;;;;;;;5.05;2.25;;;25.00;99.90;;;;;;5045185;28;20129;-85
2023/09/07 09:20:55;;;;;;;5.07;2.15;;;25.10;99.90;;;;;;5064108;28;20017;-85
2023/09/07 09:23:21;;;;;;;4.05;2.05;;;25.20;99.90;;;;;;5061220;28;20057;-84
2023/09/07 09:25:50;;;;;;;3.60;2.17;;;25.20;99.90;;;;;;5064031;28;20071;-84
2023/09/07 09:28:15;;;;;;;5.10;2.15;;;25.40;99.90;;;;;;5047085;28;20033;-85
2023/09/07 09:30:45;;;;;;;3.72;2.28;;;25.50;99.90;;;;;;5064885;28;20182;-84
2023/09/07 09:33:10;;;;;;;3.92;1.88;;;25.60;99.90;;;;;;5060579;28;20029;-84
2023/09/07 09:35:38;;;;;;;7.95;2.40;;;25.70;99.90;;;;;;5052968;28;20020;-85
2023/09/07 09:38:04;;;;;;;3.55;1.83;;;25.80;99.90;;;;;;5052390;28;20056;-84
2023/09/07 09:40:36;;;;;;;10.48;2.40;;;25.90;99.90;;;;;;5052931;28;20072;-85
2023/09/07 09:43:03;;;;;;;3.65;2.10;;;25.90;99.90;;;;;;5034238;28;20037;-84
2023/09/07 09:45:30;;;;;;;7.38;2.17;;;26.00;99.90;;;;;;5063048;28;20017;-84
2023/09/07 09:47:56;;;;;;;3.55;2.47;;;26.00;99.90;;;;;;5037567;28;20029;-85
2023/09/07 09:50:22;;;;;;;5.15;2.25;;;26.10;99.90;;;;;;5046083;28;20040;-84
2023/09/07 09:52:48;;;;;;;4.40;2.55;;;26.10;99.90;;;;;;5060979;28;20025;-85
2023/09/07 09:55:15;;;;;;;4.35;2.13;;;26.30;99.90;;;;;;5058261;28;20095;-85
2023/09/07 09:57:41;;;;;;;4.50;2.13;;;26.30;99.70;;;;;;5048157;28;20052;-84
2023/09/07 10:02:47;;;;;;;5.05;2.40;;;26.50;99.30;;;;;;5034158;28;20042;-85
2023/09/07 10:05:14;;;;;;;6.07;2.35;;;26.60;99.20;;;;;;5049911;28;20032;-83
2023/09/07 10:07:44;;;;;;;4.22;2.17;;;26.70;99.60;;;;;;5049858;28;20048;-85
2023/09/07 10:10:14;;;;;;;4.70;1.98;;;26.80;98.90;;;;;;5052525;28;20492;-85
2023/09/07 10:12:45;;;;;;;6.85;2.20;;;26.90;98.60;;;;;;5050040;28;20029;-84
2023/09/07 10:15:21;;;;;;;7.03;2.17;;;27.00;98.20;;;;;;5052252;28;20031;-85
2023/09/07 10:17:49;;;;;;;4.78;1.80;;;27.10;97.80;;;;;;5060590;28;21709;-84
2023/09/07 10:20:16;;;;;;;3.88;2.33;;;27.10;96.70;;;;;;5061606;28;20033;-84
2023/09/07 10:22:42;;;;;;;5.20;2.08;;;27.20;96.50;;;;;;5061496;28;20025;-84
2023/09/07 10:25:21;;;;;;;4.00;1.92;;;27.30;96.40;;;;;;5048789;28;20048;-84
2023/09/07 10:27:47;;;;;;;3.95;2.05;;;27.40;96.00;;;;;;5057978;28;20025;-84
2023/09/07 10:30:13;;;;;;;3.65;2.15;;;27.40;95.80;;;;;;5039249;28;20032;-84
2023/09/07 10:32:42;;;;;;;6.18;1.98;;;27.50;95.90;;;;;;5048649;28;20396;-85
2023/09/07 10:35:25;;;;;;;9.50;2.42;;;27.60;96.00;;;;;;5067969;28;20423;-83
2023/09/07 10:37:51;;;;;;;3.20;2.17;;;27.60;96.20;;;;;;5045926;28;20032;-85
2023/09/07 10:40:24;;;;;;;3.35;2.10;;;27.70;96.10;;;;;;5048640;28;20038;-85
2023/09/07 10:43:01;;;;;;;5.93;2.30;;;27.80;95.70;;;;;;5045903;28;20083;-85
2023/09/07 10:45:26;;;;;;;5.60;2.00;;;27.90;95.40;;;;;;5047095;28;20025;-84
2023/09/07 10:47:52;;;;;;;3.40;2.03;;;28.00;95.20;;;;;;5067797;28;20013;-84
2023/09/07 10:50:17;;;;;;;5.03;1.80;;;28.00;94.30;;;;;;5047322;28;20395;-84
2023/09/07 10:52:43;;;;;;;4.55;1.80;;;28.10;94.10;;;;;;5061935;28;20418;-84
2023/09/07 10:55:10;;;;;;;5.93;1.90;;;28.20;94.00;;;;;;5065005;28;20451;-85
2023/09/07 10:57:46;;;;;;;5.82;2.08;;;28.20;93.60;;;;;;5051964;28;20392;-85
2023/09/07 11:00:14;;;;;;;4.40;2.28;;;28.30;93.40;;;;;;5051405;28;20028;-84
2023/09/07 11:02:41;;;;;;;6.13;2.33;;;28.30;92.90;;;;;;5036042;28;20040;-84
2023/09/07 11:05:07;;;;;;;4.75;2.20;;;28.30;93.00;;;;;;5050965;28;20036;-84
2023/09/07 11:07:33;;;;;;;9.18;2.03;;;28.40;92.10;;;;;;5051402;28;20048;-83
2023/09/07 11:09:59;;;;;;;6.97;2.30;;;28.40;92.10;;;;;;5051551;28;20033;-85
2023/09/07 11:12:25;;;;;;;3.92;2.28;;;28.50;91.90;;;;;;5051828;28;20421;-84
2023/09/07 11:14:52;;;;;;;6.03;2.50;;;28.50;91.80;;;;;;5032094;28;20021;-85
2023/09/07 11:17:17;;;;;;;4.47;2.30;;;28.50;91.40;;;;;;5031447;28;20053;-84
2023/09/07 11:19:43;;;;;;;4.28;2.35;;;28.50;91.80;;;;;;5064971;28;20090;-85
2023/09/07 11:22:12;;;;;;;8.40;2.10;;;28.70;91.00;;;;;;5051046;28;20036;-85
2023/09/07 11:24:37;;;;;;;3.17;1.75;;;28.60;90.40;;;;;;5051437;28;20040;-84
2023/09/07 11:27:09;;;;;;;4.68;2.25;;;28.60;90.10;;;;;;5042882;28;20025;-85
2023/09/07 11:29:35;;;;;;;7.80;2.63;;;28.70;88.80;;;;;;5045902;28;20078;-83
2023/09/07 11:32:11;;;;;;;4.07;2.25;;;28.60;87.50;;;;;;5050846;28;20021;-83
2023/09/07 11:34:51;;;;;;;3.50;2.38;;;28.60;88.60;;;;;;5050682;28;20388;-85
2023/09/07 11:37:23;;;;;;;5.72;2.30;;;28.60;88.30;;;;;;5049927;28;20021;-83
2023/09/07 11:39:49;;;;;;;4.88;1.98;;;28.70;88.20;;;;;;5063255;28;20033;-84
2023/09/07 11:42:15;;;;;;;3.75;2.40;;;28.70;87.30;;;;;;5050277;28;20438;-85
2023/09/07 11:44:40;;;;;;;3.85;2.40;;;28.70;86.70;;;;;;5042791;28;20398;-85
2023/09/07 11:47:06;;;;;;;3.92;2.20;;;28.80;87.20;;;;;;5045136;28;20032;-84
2023/09/07 11:49:32;;;;;;;4.68;2.28;;;28.90;86.60;;;;;;5050681;28;20025;-84
2023/09/07 11:51:58;;;;;;;4.50;2.55;;;28.90;85.60;;;;;;5066845;28;20029;-84
2023/09/07 11:54:23;;;;;;;6.88;2.10;;;29.00;86.20;;;;;;5067074;28;20535;-84
2023/09/07 11:56:49;;;;;;;5.38;2.50;;;29.00;86.30;;;;;;5050967;28;20029;-84
2023/09/07 11:59:17;;;;;;;3.78;2.05;;;29.00;85.10;;;;;;5063658;28;20022;-84
2023/09/07 12:01:43;;;;;;;5.32;2.08;;;29.10;85.90;;;;;;5061115;28;22144;-84
2023/09/07 12:04:08;;;;;;;7.38;2.55;;;29.20;85.40;;;;;;5036815;28;20044;-85
2023/09/07 12:06:36;;;;;;;3.13;2.47;;;29.30;85.40;;;;;;5055197;28;20045;-84
2023/09/07 12:09:03;;;;;;;4.15;1.70;;;29.50;86.00;;;;;;5039716;28;20192;-84
2023/09/07 12:11:30;;;;;;;5.60;2.38;;;29.50;85.50;;;;;;5050637;28;20021;-85
2023/09/07 12:13:56;;;;;;;3.63;2.10;;;29.60;84.60;;;;;;5066439;28;20025;-83
2023/09/07 12:16:22;;;;;;;3.25;2.00;;;29.60;83.90;;;;;;5063906;28;20139;-84
2023/09/07 12:18:48;;;;;;;6.88;2.33;;;29.70;83.40;;;;;;5048573;28;20032;-84
2023/09/07 12:21:13;;;;;;;4.00;1.83;;;29.80;82.30;;;;;;5059559;28;20033;-84
2023/09/07 12:23:39;;;;;;;3.20;1.98;;;29.80;82.20;;;;;;5034898;28;20042;-84
2023/09/07 12:26:04;;;;;;;5.30;2.15;;;29.80;82.10;;;;;;5047055;28;20025;-84
2023/09/07 12:28:31;;;;;;;4.50;1.98;;;29.90;81.60;;;;;;5052091;28;20041;-83
2023/09/07 12:30:58;;;;;;;4.78;2.90;;;30.00;81.20;;;;;;5048752;28;20074;-83
2023/09/07 12:33:23;;;;;;;3.78;1.83;;;30.00;80.90;;;;;;5051738;28;20036;-85
2023/09/07 12:35:49;;;;;;;5.55;2.45;;;30.10;80.50;;;;;;5049925;28;20025;-84